Time;durP1;ratioP1;P1;durP2;ratioP2;P2;SDS_P1;SDS_P2;PMS_P1;PMS_P2;Temp;Humidity;BMP_temperature;BMP_pressure;BME280_temperature;BME280_humidity;BME280_pressure;Samples;Min_cycle;Max_cycle;Signal;HPM_P1;HPM_P2
2021/01/04 00:02:13;;;;;;;;;;;;;;;27.93;15.46;97856.44;5101146;28;19967;-80
2021/01/04 00:04:42;;;;;;;;;;;;;;;27.84;15.33;97851.53;5093973;28;19927;-80
2021/01/04 00:07:10;;;;;;;;;;;;;;;28.11;15.06;97845.22;5097800;28;20363;-80
2021/01/04 00:09:39;;;;;;;;;;;;;;;28.30;14.91;97849.66;5101814;28;19920;-80
2021/01/04 00:12:12;;;;;;;;;;;;;;;28.43;14.54;97850.28;5095815;28;19920;-80
2021/01/04 00:14:44;;;;;;;;;;;;;;;28.03;14.80;97853.19;5104929;28;20029;-80
2021/01/04 00:17:15;;;;;;;;;;;;;;;26.28;16.22;97855.03;5093634;28;19916;-80
2021/01/04 00:19:55;;;;;;;;;;;;;;;24.96;17.67;97854.72;5095390;28;20421;-80
2021/01/04 00:22:29;;;;;;;;;;;;;;;24.50;18.52;97846.78;5101295;28;19951;-80
2021/01/04 00:25:13;;;;;;;;;;;;;;;25.55;17.28;97851.38;5098589;28;20303;-80
2021/01/04 00:27:42;;;;;;;;;;;;;;;26.40;16.21;97848.53;5105638;28;19970;-80
2021/01/04 00:30:13;;;;;;;;;;;;;;;26.20;15.96;97848.03;5093757;28;19916;-80
2021/01/04 00:32:39;;;;;;;;;;;;;;;24.40;18.24;97861.88;5105540;28;19916;-80
2021/01/04 00:35:09;;;;;;;;;;;;;;;25.10;17.53;97848.69;5100752;28;19943;-80
2021/01/04 00:37:47;;;;;;;;;;;;;;;25.37;17.31;97851.88;5100804;28;19923;-80
2021/01/04 00:40:39;;;;;;;;;;;;;;;25.56;17.12;97841.69;5093332;28;19916;-80
2021/01/04 00:43:08;;;;;;;;;;;;;;;25.98;16.73;97842.31;5090533;28;20038;-80
2021/01/04 00:45:40;;;;;;;;;;;;;;;26.23;16.73;97844.34;5100689;28;20322;-80
2021/01/04 00:48:13;;;;;;;;;;;;;;;26.10;16.56;97847.16;5093522;28;20371;-80
2021/01/04 00:50:42;;;;;;;;;;;;;;;26.38;16.48;97839.78;5101895;28;20218;-80
2021/01/04 00:53:21;;;;;;;;;;;;;;;26.53;16.22;97850.09;5101060;28;19955;-80
2021/01/04 00:55:53;;;;;;;;;;;;;;;26.96;15.90;97852.16;5103473;28;19916;-80
2021/01/04 00:58:28;;;;;;;;;;;;;;;27.18;15.47;97855.75;5105795;28;20261;-80
2021/01/04 01:01:01;;;;;;;;;;;;;;;27.22;15.22;97859.22;5101116;28;19957;-80
2021/01/04 01:03:30;;;;;;;;;;;;;;;27.32;15.51;97862.88;5096997;28;19923;-80
2021/01/04 01:06:07;;;;;;;;;;;;;;;27.26;15.60;97853.44;5083924;28;19920;-80
2021/01/04 01:08:34;;;;;;;;;;;;;;;26.81;16.07;97858.78;5098978;28;19916;-80
2021/01/04 01:11:04;;;;;;;;;;;;;;;26.83;16.03;97854.28;5105559;28;19919;-80
2021/01/04 01:13:35;;;;;;;;;;;;;;;26.61;16.24;97859.06;5105221;28;20010;-80
2021/01/04 01:16:13;;;;;;;;;;;;;;;26.76;16.28;97857.34;5102976;28;19968;-80
2021/01/04 01:18:39;;;;;;;;;;;;;;;26.96;15.77;97857.00;5098615;28;20356;-80
2021/01/04 01:21:07;;;;;;;;;;;;;;;26.38;16.71;97863.09;5102987;28;19922;-80
2021/01/04 01:23:34;;;;;;;;;;;;;;;26.14;16.20;97875.19;5096994;28;19939;-80
2021/01/04 01:26:15;;;;;;;;;;;;;;;24.98;17.58;97873.94;5103077;28;19912;-80
2021/01/04 01:29:00;;;;;;;;;;;;;;;23.04;19.85;97861.88;5085388;28;19998;-80
2021/01/04 01:31:40;;;;;;;;;;;;;;;22.92;19.96;97876.56;5097454;28;20413;-80
2021/01/04 01:34:17;;;;;;;;;;;;;;;22.97;19.75;97878.84;5109858;28;19924;-80
2021/01/04 01:36:58;;;;;;;;;;;;;;;23.48;19.36;97883.75;5096648;28;19916;-80
2021/01/04 01:39:42;;;;;;;;;;;;;;;22.80;20.08;97877.97;5101821;28;19961;-80
2021/01/04 01:42:27;;;;;;;;;;;;;;;23.06;20.08;97879.03;5100152;28;20010;-79
2021/01/04 01:45:11;;;;;;;;;;;;;;;22.76;20.42;97884.84;5102857;28;19969;-80
2021/01/04 01:47:42;;;;;;;;;;;;;;;23.86;19.13;97884.06;5108507;28;19927;-80
2021/01/04 01:50:15;;;;;;;;;;;;;;;23.52;19.49;97880.88;5103669;28;19916;-80
2021/01/04 01:52:54;;;;;;;;;;;;;;;23.63;19.76;97870.22;5103812;28;19920;-79
2021/01/04 01:55:26;;;;;;;;;;;;;;;24.32;18.81;97869.69;5099976;28;19923;-80
2021/01/04 01:58:06;;;;;;;;;;;;;;;24.23;18.85;97869.53;5096748;28;20021;-80
2021/01/04 02:00:41;;;;;;;;;;;;;;;24.32;18.79;97866.13;5104444;28;19919;-80
2021/01/04 02:03:13;;;;;;;;;;;;;;;24.32;18.96;97855.66;5099079;28;19963;-80
2021/01/04 02:05:44;;;;;;;;;;;;;;;24.59;18.71;97850.53;5107677;28;19927;-80
2021/01/04 02:08:13;;;;;;;;;;;;;;;24.92;18.40;97839.22;5099298;28;19915;-80
2021/01/04 02:10:42;;;;;;;;;;;;;;;25.00;18.34;97840.56;5105601;28;19942;-80
2021/01/04 02:13:14;;;;;;;;;;;;;;;25.66;17.52;97834.94;5099905;28;19955;-80
2021/01/04 02:16:00;;;;;;;;;;;;;;;26.34;16.69;97839.13;5110812;28;20343;-80
2021/01/04 02:18:26;;;;;;;;;;;;;;;26.84;16.03;97843.78;5096452;28;20454;-80
2021/01/04 02:21:11;;;;;;;;;;;;;;;26.98;16.04;97849.66;5089206;28;20019;-80
2021/01/04 02:23:55;;;;;;;;;;;;;;;27.07;15.78;97852.53;5095690;28;19919;-80
2021/01/04 02:26:26;;;;;;;;;;;;;;;26.99;15.87;97861.72;5105233;28;20011;-80
2021/01/04 02:28:55;;;;;;;;;;;;;;;27.06;16.03;97862.25;5099535;28;19919;-80
2021/01/04 02:31:22;;;;;;;;;;;;;;;26.47;16.29;97865.19;5096078;28;19912;-80
2021/01/04 02:33:49;;;;;;;;;;;;;;;25.77;17.30;97874.75;5096480;28;20283;-80
2021/01/04 02:36:15;;;;;;;;;;;;;;;25.24;17.64;97872.75;5102471;28;20363;-80
2021/01/04 02:38:47;;;;;;;;;;;;;;;24.03;18.84;97875.25;5103279;28;19911;-80
2021/01/04 02:41:13;;;;;;;;;;;;;;;22.73;20.26;97868.94;5109894;28;19951;-80
2021/01/04 02:43:39;;;;;;;;;;;;;;;23.06;20.18;97881.84;5107914;28;19923;-80
2021/01/04 02:46:08;;;;;;;;;;;;;;;22.52;20.56;97878.53;5106252;28;20044;-80
2021/01/04 02:49:03;;;;;;;;;;;;;;;21.15;22.29;97875.91;5106109;28;20280;-80
2021/01/04 02:51:32;;;;;;;;;;;;;;;21.75;21.63;97866.66;5112760;28;20029;-79
2021/01/04 02:54:02;;;;;;;;;;;;;;;22.56;20.71;97860.44;5108182;28;19924;-79
2021/01/04 02:56:38;;;;;;;;;;;;;;;23.87;19.45;97866.03;5105320;28;19927;-80
2021/01/04 02:59:22;;;;;;;;;;;;;;;24.86;18.24;97864.25;5096585;28;19923;-80
2021/01/04 03:01:54;;;;;;;;;;;;;;;25.58;17.05;97861.69;5104947;28;19996;-80
2021/01/04 03:04:22;;;;;;;;;;;;;;;25.27;17.48;97858.63;5094820;28;19949;-80
2021/01/04 03:07:08;;;;;;;;;;;;;;;24.04;19.01;97859.19;5098547;28;19916;-80
2021/01/04 03:09:35;;;;;;;;;;;;;;;24.17;18.95;97860.09;5103540;28;19923;-80
2021/01/04 03:12:03;;;;;;;;;;;;;;;24.68;18.37;97864.72;5107737;28;19914;-80
2021/01/04 03:14:51;;;;;;;;;;;;;;;25.34;17.39;97864.00;5105349;28;20398;-80
2021/01/04 03:17:17;;;;;;;;;;;;;;;25.91;16.76;97865.06;5106750;28;19916;-79
2021/01/04 03:19:45;;;;;;;;;;;;;;;25.53;17.20;97864.28;5103753;28;19942;-79
2021/01/04 03:22:13;;;;;;;;;;;;;;;24.84;17.96;97877.94;5103011;28;20003;-79
2021/01/04 03:24:39;;;;;;;;;;;;;;;24.80;18.19;97874.44;5097516;28;20420;-79
2021/01/04 03:27:10;;;;;;;;;;;;;;;25.15;17.88;97873.44;5103359;28;19924;-80
2021/01/04 03:29:36;;;;;;;;;;;;;;;24.82;17.96;97869.19;5097757;28;20280;-80
2021/01/04 03:32:02;;;;;;;;;;;;;;;22.91;19.85;97872.16;5095525;28;19923;-80
2021/01/04 03:34:28;;;;;;;;;;;;;;;22.39;20.57;97866.34;5099983;28;19927;-80
2021/01/04 03:36:54;;;;;;;;;;;;;;;22.77;20.34;97870.44;5103452;28;20269;-79
2021/01/04 03:39:20;;;;;;;;;;;;;;;23.81;19.25;97873.38;5099293;28;19916;-80
2021/01/04 03:41:46;;;;;;;;;;;;;;;24.90;18.18;97867.72;5109709;28;19920;-80
2021/01/04 03:44:12;;;;;;;;;;;;;;;25.48;17.68;97862.84;5102931;28;20368;-80
2021/01/04 03:46:44;;;;;;;;;;;;;;;25.85;17.35;97866.88;5111043;28;19930;-80
2021/01/04 03:49:10;;;;;;;;;;;;;;;26.41;16.81;97873.44;5111617;28;19916;-80
2021/01/04 03:51:36;;;;;;;;;;;;;;;26.32;16.59;97869.75;5100469;28;20402;-79
2021/01/04 03:54:02;;;;;;;;;;;;;;;25.99;17.04;97883.28;5102213;28;19923;-80
2021/01/04 03:56:28;;;;;;;;;;;;;;;25.65;17.21;97881.16;5110485;28;20438;-80
2021/01/04 03:58:54;;;;;;;;;;;;;;;24.54;18.46;97893.19;5103138;28;19919;-80
2021/01/04 04:01:20;;;;;;;;;;;;;;;24.88;18.10;97881.44;5101618;28;20007;-80
2021/01/04 04:03:46;;;;;;;;;;;;;;;24.77;17.98;97883.75;5097289;28;20010;-80
2021/01/04 04:06:13;;;;;;;;;;;;;;;24.76;18.33;97882.19;5090986;28;20371;-79
2021/01/04 04:08:42;;;;;;;;;;;;;;;25.27;17.61;97883.13;5100221;28;19965;-80
2021/01/04 04:11:08;;;;;;;;;;;;;;;25.40;17.65;97876.28;5103015;28;20428;-80
2021/01/04 04:13:34;;;;;;;;;;;;;;;25.70;17.13;97872.16;5097756;28;19946;-80
2021/01/04 04:16:00;;;;;;;;;;;;;;;25.94;17.10;97879.03;5101019;28;19961;-80
2021/01/04 04:18:26;;;;;;;;;;;;;;;26.41;16.19;97878.28;5092160;28;20006;-80
2021/01/04 04:20:52;;;;;;;;;;;;;;;26.95;15.89;97881.59;5104123;28;19911;-80
2021/01/04 04:23:18;;;;;;;;;;;;;;;27.35;15.58;97881.72;5085646;28;19915;-80
2021/01/04 04:25:44;;;;;;;;;;;;;;;27.47;15.31;97882.91;5104743;28;19916;-80
2021/01/04 04:28:10;;;;;;;;;;;;;;;27.04;15.91;97892.13;5112408;28;20011;-80
2021/01/04 04:30:36;;;;;;;;;;;;;;;27.19;15.67;97885.50;5102454;28;20438;-80
2021/01/04 04:33:02;;;;;;;;;;;;;;;27.26;15.18;97885.25;5098370;28;19943;-80
2021/01/04 04:35:28;;;;;;;;;;;;;;;27.30;15.25;97885.13;5105475;28;19959;-80
2021/01/04 04:37:55;;;;;;;;;;;;;;;27.14;15.43;97883.28;5110005;28;19998;-80
2021/01/04 04:40:29;;;;;;;;;;;;;;;26.60;15.89;97872.38;5094363;28;19915;-80
2021/01/04 04:42:57;;;;;;;;;;;;;;;26.81;15.56;97879.31;5096454;28;20010;-80
2021/01/04 04:45:23;;;;;;;;;;;;;;;26.87;15.27;97866.19;5110621;28;20332;-80
2021/01/04 04:48:10;;;;;;;;;;;;;;;27.15;14.88;97876.41;5097279;28;19960;-80
2021/01/04 04:50:50;;;;;;;;;;;;;;;27.38;14.71;97866.69;5097812;28;19920;-80
2021/01/04 04:53:31;;;;;;;;;;;;;;;26.84;14.77;97866.34;5103017;28;19920;-80
2021/01/04 04:55:56;;;;;;;;;;;;;;;25.74;15.60;97875.63;5108315;28;20287;-80
2021/01/04 04:58:25;;;;;;;;;;;;;;;24.75;16.65;97880.56;5099648;28;19916;-79
2021/01/04 05:01:10;;;;;;;;;;;;;;;25.09;16.66;97866.78;5101594;28;20010;-80
2021/01/04 05:03:45;;;;;;;;;;;;;;;25.75;15.66;97873.63;5099139;28;20387;-80
2021/01/04 05:06:11;;;;;;;;;;;;;;;26.05;15.86;97864.59;5104902;28;19915;-80
2021/01/04 05:08:48;;;;;;;;;;;;;;;26.46;15.36;97866.44;5104027;28;19961;-79
2021/01/04 05:11:15;;;;;;;;;;;;;;;26.69;14.86;97866.81;5096311;28;19935;-80
2021/01/04 05:13:44;;;;;;;;;;;;;;;26.89;14.77;97866.50;5094439;28;19923;-79
2021/01/04 05:16:16;;;;;;;;;;;;;;;26.36;14.70;97868.38;5106122;28;19919;-79
2021/01/04 05:19:01;;;;;;;;;;;;;;;25.66;15.42;97867.88;5113614;28;19911;-80
2021/01/04 05:21:45;;;;;;;;;;;;;;;24.28;17.05;97876.63;5113911;28;20356;-79
2021/01/04 05:24:21;;;;;;;;;;;;;;;24.95;16.10;97867.19;5112868;28;19922;-80
2021/01/04 05:27:02;;;;;;;;;;;;;;;25.30;15.64;97859.72;5107178;28;19999;-79
2021/01/04 05:29:50;;;;;;;;;;;;;;;25.40;16.13;97861.44;5095301;28;20360;-79
2021/01/04 05:32:35;;;;;;;;;;;;;;;25.34;16.11;97868.84;5111612;28;19998;-79
2021/01/04 05:35:03;;;;;;;;;;;;;;;25.04;16.08;97863.75;5110191;28;19926;-80
2021/01/04 05:37:48;;;;;;;;;;;;;;;25.15;15.79;97862.19;5110918;28;19922;-79
2021/01/04 05:40:33;;;;;;;;;;;;;;;25.38;15.62;97859.06;5100072;28;20020;-79
2021/01/04 05:43:08;;;;;;;;;;;;;;;25.78;15.30;97873.53;5102305;28;19923;-79
2021/01/04 05:45:38;;;;;;;;;;;;;;;25.97;14.66;97861.25;5104868;28;19912;-79
2021/01/04 05:48:35;;;;;;;;;;;;;;;26.07;14.40;97867.72;5108938;28;19973;-79
2021/01/04 05:51:10;;;;;;;;;;;;;;;25.64;14.72;97861.94;5108247;28;19916;-79
2021/01/04 05:53:36;;;;;;;;;;;;;;;25.34;15.23;97854.81;5105710;28;20064;-79
2021/01/04 05:56:02;;;;;;;;;;;;;;;25.53;14.89;97867.09;5107061;28;19912;-79
2021/01/04 05:58:31;;;;;;;;;;;;;;;25.47;14.69;97860.44;5102058;28;20034;-79
2021/01/04 06:01:15;;;;;;;;;;;;;;;25.16;15.18;97854.53;5100708;28;19939;-81
2021/01/04 06:03:42;;;;;;;;;;;;;;;24.58;15.53;97860.19;5109516;28;20354;-80
2021/01/04 06:06:29;;;;;;;;;;;;;;;24.70;15.38;97853.03;5099836;28;19916;-81
2021/01/04 06:08:59;;;;;;;;;;;;;;;25.11;15.01;97858.69;5090432;28;19966;-80
2021/01/04 06:11:25;;;;;;;;;;;;;;;25.52;14.85;97854.28;5100434;28;19999;-81
2021/01/04 06:13:56;;;;;;;;;;;;;;;25.78;14.61;97851.03;5105959;28;19996;-81
2021/01/04 06:16:26;;;;;;;;;;;;;;;24.52;15.10;97856.34;5109847;28;19919;-81
2021/01/04 06:18:55;;;;;;;;;;;;;;;24.16;15.67;97863.31;5107250;28;19915;-80
2021/01/04 06:21:31;;;;;;;;;;;;;;;24.34;15.50;97860.84;5114026;28;19916;-80
2021/01/04 06:24:01;;;;;;;;;;;;;;;24.81;15.04;97861.22;5116538;28;19915;-80
2021/01/04 06:26:28;;;;;;;;;;;;;;;25.30;14.89;97863.31;5116769;28;19912;-80
2021/01/04 06:28:55;;;;;;;;;;;;;;;24.82;14.96;97862.75;5115974;28;19920;-80
2021/01/04 06:31:27;;;;;;;;;;;;;;;23.67;16.21;97871.69;5096422;28;19919;-81
2021/01/04 06:33:58;;;;;;;;;;;;;;;23.57;16.74;97872.72;5109500;28;19963;-80
2021/01/04 06:36:24;;;;;;;;;;;;;;;24.07;16.16;97883.56;5108487;27;19915;-81
2021/01/04 06:38:51;;;;;;;;;;;;;;;24.27;16.08;97886.28;5095575;28;19919;-81
2021/01/04 06:41:27;;;;;;;;;;;;;;;24.04;16.02;97896.44;5114214;28;19912;-81
2021/01/04 06:43:53;;;;;;;;;;;;;;;24.11;16.04;97895.50;5112163;28;19920;-80
2021/01/04 06:46:38;;;;;;;;;;;;;;;24.48;16.29;97903.34;5107880;28;20342;-83
2021/01/04 06:49:15;;;;;;;;;;;;;;;24.55;16.15;97905.97;5103793;27;19967;-81
2021/01/04 06:52:00;;;;;;;;;;;;;;;24.32;16.68;97905.41;5103574;27;20329;-81
2021/01/04 06:54:31;;;;;;;;;;;;;;;24.45;16.55;97906.25;5106439;28;20357;-81
2021/01/04 06:57:16;;;;;;;;;;;;;;;24.72;16.40;97912.34;5093019;28;19915;-81
2021/01/04 07:00:00;;;;;;;;;;;;;;;25.26;15.53;97916.03;5110950;28;19916;-81
2021/01/04 07:02:44;;;;;;;;;;;;;;;25.69;15.46;97911.97;5106451;28;19947;-81
2021/01/04 07:05:10;;;;;;;;;;;;;;;24.61;16.04;97917.47;5100903;28;19960;-81
2021/01/04 07:07:57;;;;;;;;;;;;;;;24.77;16.17;97928.69;5109762;28;19969;-80
2021/01/04 07:10:28;;;;;;;;;;;;;;;25.36;15.74;97923.38;5067471;28;19958;-81
2021/01/04 07:13:06;;;;;;;;;;;;;;;25.35;16.05;97918.19;5109632;28;19916;-80
2021/01/04 07:15:32;;;;;;;;;;;;;;;25.23;16.53;97919.75;5103772;28;20439;-81
2021/01/04 07:18:13;;;;;;;;;;;;;;;25.11;16.68;97919.72;5109273;28;19923;-80
2021/01/04 07:20:39;;;;;;;;;;;;;;;25.55;16.40;97912.41;5077675;28;19930;-81
2021/01/04 07:23:20;;;;;;;;;;;;;;;26.11;16.06;97919.09;5109071;28;20006;-81
2021/01/04 07:25:53;;;;;;;;;;;;;;;26.58;15.69;97927.56;5106959;28;19924;-81
2021/01/04 07:28:28;;;;;;;;;;;;;;;26.55;15.75;97926.44;5103311;28;19920;-81
2021/01/04 07:30:57;;;;;;;;;;;;;;;25.90;16.19;97926.19;5110688;28;19994;-81
2021/01/04 07:33:25;;;;;;;;;;;;;;;25.72;16.60;97928.72;5106076;28;20006;-81
2021/01/04 07:36:02;;;;;;;;;;;;;;;26.07;16.31;97926.81;5112513;28;20359;-81
2021/01/04 07:38:42;;;;;;;;;;;;;;;26.05;16.57;97932.13;5106058;28;19916;-81
2021/01/04 07:41:18;;;;;;;;;;;;;;;25.93;16.42;97928.06;5106948;28;20002;-81
2021/01/04 07:43:56;;;;;;;;;;;;;;;26.03;16.10;97929.75;5103336;28;19930;-81
2021/01/04 07:46:41;;;;;;;;;;;;;;;26.36;16.11;97921.88;5107253;28;19922;-81
2021/01/04 07:49:07;;;;;;;;;;;;;;;26.90;15.52;97934.94;5108274;28;19923;-81
2021/01/04 07:51:45;;;;;;;;;;;;;;;27.14;15.38;97936.06;5107431;28;19998;-81
2021/01/04 07:54:29;;;;;;;;;;;;;;;27.22;15.26;97934.53;5111990;28;19916;-81
2021/01/04 07:57:13;;;;;;;;;;;;;;;27.22;15.19;97943.00;5105648;28;19915;-81
2021/01/04 08:00:05;;;;;;;;;;;;;;;27.11;15.21;97940.59;5101428;28;19942;-81
2021/01/04 08:02:56;;;;;;;;;;;;;;;27.07;15.04;97944.78;5102124;28;19929;-82
2021/01/04 08:05:41;;;;;;;;;;;;;;;26.92;15.49;97943.69;5109106;28;19919;-82
2021/01/04 08:08:12;;;;;;;;;;;;;;;27.09;15.49;97939.47;5106217;28;20033;-81
2021/01/04 08:10:44;;;;;;;;;;;;;;;27.21;15.57;97944.25;5111132;28;20260;-81
2021/01/04 08:13:25;;;;;;;;;;;;;;;27.58;15.11;97934.81;5112384;28;20398;-82
2021/01/04 08:15:51;;;;;;;;;;;;;;;26.79;16.04;97931.69;5107181;28;19916;-82
2021/01/04 08:18:19;;;;;;;;;;;;;;;26.06;16.58;97937.31;5104293;28;20390;-82
2021/01/04 08:20:51;;;;;;;;;;;;;;;26.16;16.87;97935.44;5105192;28;19911;-81
2021/01/04 08:23:35;;;;;;;;;;;;;;;26.65;16.79;97938.59;5111918;28;19936;-82
2021/01/04 08:26:13;;;;;;;;;;;;;;;27.06;15.98;97929.91;5110079;28;19912;-82
2021/01/04 08:28:42;;;;;;;;;;;;;;;26.25;16.69;97927.06;5111300;28;19915;-82
2021/01/04 08:31:26;;;;;;;;;;;;;;;26.16;16.92;97934.63;5109829;28;19912;-81
2021/01/04 08:33:59;;;;;;;;;;;;;;;26.73;16.35;97932.25;5108916;28;19927;-82
2021/01/04 08:36:31;;;;;;;;;;;;;;;26.52;16.68;97926.56;5104363;28;19974;-82
2021/01/04 08:39:29;;;;;;;;;;;;;;;26.54;16.57;97927.69;5104624;28;20325;-81
2021/01/04 08:42:04;;;;;;;;;;;;;;;26.43;16.66;97924.44;5102566;28;19916;-82
2021/01/04 08:44:31;;;;;;;;;;;;;;;26.29;16.92;97922.13;5104177;28;19939;-82
2021/01/04 08:47:06;;;;;;;;;;;;;;;25.97;17.10;97922.34;5103765;28;19919;-81
2021/01/04 08:49:40;;;;;;;;;;;;;;;25.98;17.04;97921.88;5100636;28;19922;-82
2021/01/04 08:52:17;;;;;;;;;;;;;;;26.18;16.67;97930.13;5106247;28;19919;-82
2021/01/04 08:54:43;;;;;;;;;;;;;;;26.54;16.61;97922.03;5106779;28;19922;-82
2021/01/04 08:57:18;;;;;;;;;;;;;;;26.41;16.64;97932.56;5108048;28;19911;-82
2021/01/04 08:59:56;;;;;;;;;;;;;;;26.21;17.12;97939.69;5104309;28;20363;-82
2021/01/04 09:02:33;;;;;;;;;;;;;;;26.07;17.15;97926.81;5105570;28;19922;-82
2021/01/04 09:05:00;;;;;;;;;;;;;;;26.25;16.87;97932.72;5108406;28;19926;-82
2021/01/04 09:07:27;;;;;;;;;;;;;;;23.91;19.47;97934.03;5106466;28;19928;-82
2021/01/04 09:09:58;;;;;;;;;;;;;;;24.81;18.71;97942.63;5106598;28;19916;-82
2021/01/04 09:12:24;;;;;;;;;;;;;;;24.82;18.55;97938.59;5090741;28;19916;-82
2021/01/04 09:14:54;;;;;;;;;;;;;;;25.39;19.86;97932.94;5109238;28;19968;-79
2021/01/04 09:23:40;;;;;;;10.93;6.00;;;;;;;;;;5057653;27;20516;-73
2021/01/04 09:26:13;;;;;;;7.65;5.10;;;;;;;;;;5060134;28;20029;-71
2021/01/04 09:28:39;;;;;;;14.25;5.43;;;;;;;;;;5066134;28;20024;-69
2021/01/04 09:31:06;;;;;;;8.65;4.35;;;;;;;;;;5064833;28;20443;-75
2021/01/04 09:40:45;;;;;;;36.53;22.47;;;;;;;14.84;42.17;97931.47;5057685;27;1400983;-88
2021/01/04 09:43:15;;;;;;;35.45;19.80;;;;;;;22.28;25.19;97922.50;5097038;28;20147;-88
2021/01/04 09:45:42;;;;;;;31.65;17.25;;;;;;;24.08;21.64;97912.44;5085340;28;20036;-87
2021/01/04 09:48:30;;;;;;;38.65;20.67;;;;;;;21.14;24.75;97933.72;5086436;28;20025;-88
2021/01/04 09:51:02;;;;;;;46.60;26.83;;;;;;;18.02;29.18;97946.25;5105617;28;20040;-88
2021/01/04 09:53:38;;;;;;;45.85;25.55;;;;;;;17.57;30.12;97933.94;5103694;28;20032;-89
2021/01/04 09:56:11;;;;;;;44.17;25.58;;;;;;;17.48;30.26;97927.91;5106717;28;20097;-89
2021/01/04 09:58:38;;;;;;;50.13;26.52;;;;;;;16.85;31.52;97931.28;5091265;28;20487;-90
2021/01/04 10:01:08;;;;;;;50.40;25.02;;;;;;;19.46;27.66;97931.25;5110548;28;20036;-89
2021/01/04 10:03:38;;;;;;;45.13;24.15;;;;;;;20.71;25.94;97926.25;5088163;28;20044;-89
2021/01/04 10:06:10;;;;;;;40.13;22.42;;;;;;;22.87;22.72;97924.66;5063792;28;20404;-88
2021/01/04 10:08:38;;;;;;;28.60;17.42;;;;;;;25.03;20.16;97927.56;5083746;28;20376;-88
2021/01/04 10:11:07;;;;;;;27.45;16.33;;;;;;;26.11;18.83;97915.50;5085208;28;20044;-89
2021/01/04 10:13:37;;;;;;;33.55;20.77;;;;;;;24.42;20.43;97921.16;5067742;28;20139;-89
2021/01/04 10:16:08;;;;;;;40.80;23.88;;;;;;;21.36;24.72;97917.50;5081648;28;20115;-89
2021/01/04 10:18:38;;;;;;;;;;;;;;;21.01;24.84;97917.91;5081782;28;20070;-89
2021/01/04 10:21:06;;;;;;;39.47;21.30;;;;;;;19.65;27.23;97922.34;5075234;28;19916;-89
2021/01/04 10:23:40;;;;;;;43.78;23.77;;;;;;;18.26;29.62;97919.66;5083653;28;20076;-89
2021/01/04 10:26:11;;;;;;;47.35;23.38;;;;;;;19.30;28.31;97928.09;5082298;28;20050;-88
2021/01/04 10:28:38;;;;;;;39.78;23.23;;;;;;;20.32;27.28;97924.66;5074558;28;20045;-89
2021/01/04 10:31:26;;;;;;;41.22;23.23;;;;;;;22.48;23.50;97917.75;5081359;28;20078;-87
2021/01/04 10:34:12;;;;;;;42.95;20.23;;;;;;;21.71;24.30;97919.78;5083377;28;20047;-89
2021/01/04 10:36:41;;;;;;;33.47;17.15;;;;;;;21.99;24.19;97913.00;5103946;28;20379;-88
2021/01/04 10:39:17;;;;;;;33.28;18.95;;;;;;;21.81;24.18;97912.47;5092346;28;20048;-89
2021/01/04 10:41:43;;;;;;;34.15;16.30;;;;;;;23.69;22.38;97908.50;5102112;28;20126;-88
2021/01/04 10:44:24;;;;;;;32.53;19.15;;;;;;;22.11;23.61;97904.00;5085467;28;20495;-91
2021/01/04 10:47:22;;;;;;;33.45;18.83;;;;;;;22.19;24.09;97908.28;5105134;28;20102;-89
2021/01/04 10:49:48;;;;;;;42.22;24.17;;;;;;;21.19;25.32;97907.38;5097734;28;20052;-89
2021/01/04 10:52:23;;;;;;;39.95;21.02;;;;;;;22.02;24.38;97906.56;5084955;28;20031;-90
2021/01/04 10:54:52;;;;;;;39.65;22.25;;;;;;;20.58;25.68;97898.88;5093327;28;20495;-90
2021/01/04 10:57:36;;;;;;;38.45;21.50;;;;;;;19.87;26.96;97898.72;5077576;28;20028;-90
2021/01/04 11:00:14;;;;;;;35.70;19.52;;;;;;;21.60;24.69;97890.41;5085806;28;20036;-90
2021/01/04 11:02:41;;;;;;;43.97;24.02;;;;;;;20.41;25.92;97890.69;5088214;28;20024;-90
2021/01/04 11:05:08;;;;;;;30.30;15.85;;;;;;;22.66;23.55;97878.28;5091159;28;20157;-90
2021/01/04 11:07:35;;;;;;;46.30;23.45;;;;;;;20.94;25.19;97890.09;5091871;28;20108;-90
2021/01/04 11:10:27;;;;;;;44.53;23.85;;;;;;;19.84;26.87;97879.22;5092468;28;20472;-90
2021/01/04 11:12:57;;;;;;;38.03;22.13;;;;;;;19.90;26.80;97863.69;5089576;28;20072;-90
2021/01/04 11:15:34;;;;;;;41.88;22.67;;;;;;;17.87;29.61;97872.47;5090639;28;20119;-90
2021/01/04 11:18:14;;;;;;;33.72;16.92;;;;;;;20.32;26.23;97866.09;5089285;28;20032;-90
2021/01/04 11:20:43;;;;;;;49.88;25.20;;;;;;;21.11;24.76;97866.78;5068091;28;20520;-90
2021/01/04 11:23:21;;;;;;;42.88;23.48;;;;;;;19.32;27.30;97875.63;5066149;28;20037;-90
2021/01/04 11:25:47;;;;;;;46.08;23.10;;;;;;;19.51;27.21;97874.34;5089351;28;20442;-90
2021/01/04 11:28:14;;;;;;;36.50;18.63;;;;;;;21.96;23.46;97869.13;5073895;28;20036;-90
2021/01/04 11:30:40;;;;;;;34.50;19.33;;;;;;;22.15;23.35;97870.41;5088479;28;20024;-88
2021/01/04 11:33:06;;;;;;;29.90;15.73;;;;;;;24.07;20.94;97869.56;5080776;28;20029;-88
2021/01/04 11:35:35;;;;;;;24.98;14.05;;;;;;;24.18;20.97;97867.25;5081058;28;20040;-89
2021/01/04 11:38:02;;;;;;;34.78;19.15;;;;;;;23.02;22.19;97865.13;5082030;28;20036;-89
2021/01/04 11:40:28;;;;;;;33.92;19.77;;;;;;;22.74;22.95;97862.13;5082655;28;20048;-89
2021/01/04 11:42:54;;;;;;;33.30;17.65;;;;;;;24.20;21.11;97873.22;5076859;28;20081;-89
2021/01/04 11:45:21;;;;;;;33.03;17.75;;;;;;;22.11;23.71;97859.28;5094956;28;20028;-88
2021/01/04 11:47:48;;;;;;;31.13;16.23;;;;;;;22.43;22.81;97875.47;5093835;28;20090;-89
2021/01/04 11:50:18;;;;;;;37.17;21.42;;;;;;;20.29;26.34;97874.50;5081730;28;20446;-90
2021/01/04 11:52:45;;;;;;;44.95;23.02;;;;;;;19.17;28.07;97871.31;5064853;28;20130;-90
2021/01/04 11:55:13;;;;;;;40.72;23.33;;;;;;;19.24;27.93;97869.28;5085001;28;20060;-89
2021/01/04 11:57:40;;;;;;;35.60;19.50;;;;;;;20.39;26.47;97870.81;5087039;28;20032;-90
2021/01/04 12:00:08;;;;;;;40.22;21.10;;;;;;;20.81;25.59;97870.34;5099396;28;20039;-90
2021/01/04 12:02:35;;;;;;;44.67;24.00;;;;;;;18.58;28.73;97882.31;5091688;28;20774;-90
2021/01/04 12:05:01;;;;;;;38.72;20.92;;;;;;;19.10;28.20;97888.06;5092724;28;20036;-89
2021/01/04 12:07:27;;;;;;;46.53;21.95;;;;;;;18.25;29.28;97873.63;5085341;28;20081;-89
2021/01/04 12:09:53;;;;;;;41.22;19.08;;;;;;;19.51;27.51;97877.88;5088238;28;20048;-88
2021/01/04 12:12:20;;;;;;;41.65;21.52;;;;;;;19.90;26.76;97872.84;5080377;28;20032;-88
2021/01/04 12:14:46;;;;;;;37.72;19.27;;;;;;;19.37;27.38;97866.84;5087248;28;20032;-88
2021/01/04 12:17:14;;;;;;;29.05;14.10;;;;;;;21.75;24.37;97852.69;5082982;28;20029;-88
2021/01/04 12:19:40;;;;;;;28.20;14.32;;;;;;;23.01;22.74;97843.94;5070911;28;20036;-91
2021/01/04 12:22:11;;;;;;;30.95;16.95;;;;;;;21.44;24.19;97851.16;5088051;28;20032;-88
2021/01/04 12:24:37;;;;;;;36.67;18.20;;;;;;;22.12;23.71;97858.06;5087558;28;20032;-88
2021/01/04 12:27:09;;;;;;;37.00;18.35;;;;;;;20.21;26.05;97853.44;5088183;28;20071;-89
2021/01/04 12:29:36;;;;;;;38.72;20.33;;;;;;;20.40;25.88;97858.44;5068889;28;20063;-90
2021/01/04 12:32:02;;;;;;;36.15;18.40;;;;;;;21.12;25.06;97857.97;5082893;28;20020;-87
2021/01/04 12:34:28;;;;;;;29.02;15.50;;;;;;;22.08;23.67;97860.13;5068504;28;20027;-87
2021/01/04 12:36:57;;;;;;;31.70;18.05;;;;;;;22.27;23.60;97861.38;5086322;28;20111;-89
2021/01/04 12:39:23;;;;;;;33.42;18.17;;;;;;;22.47;23.45;97867.81;5066317;28;20131;-89
2021/01/04 12:41:50;;;;;;;30.92;16.55;;;;;;;23.14;22.48;97870.06;5084063;28;20036;-93
2021/01/04 12:44:16;;;;;;;38.60;19.00;;;;;;;23.09;22.32;97866.97;5064100;28;20048;-92
2021/01/04 12:46:48;;;;;;;34.83;17.45;;;;;;;22.75;23.01;97869.31;5065416;28;20052;-90
2021/01/04 12:49:17;;;;;;;34.70;18.13;;;;;;;22.20;23.71;97859.50;5071834;28;20086;-89
2021/01/04 12:51:47;;;;;;;36.20;18.25;;;;;;;20.70;26.06;97861.28;5091246;28;20458;-89
2021/01/04 12:54:17;;;;;;;33.10;18.27;;;;;;;21.74;24.44;97862.25;5092128;28;20043;-89
2021/01/04 12:56:48;;;;;;;43.17;21.75;;;;;;;20.05;26.71;97872.72;5085961;28;20032;-90
2021/01/04 12:59:21;;;;;;;39.90;21.23;;;;;;;19.81;27.31;97861.34;5069457;28;20047;-89
2021/01/04 13:01:53;;;;;;;34.42;17.80;;;;;;;21.66;25.01;97858.78;5079015;28;20051;-90